createdAt,value
2018-10-19T00:00:24.172Z,2.60
2018-10-19T00:02:50.561Z,2.33
2018-10-19T00:05:17.100Z,2.63
2018-10-19T00:07:43.463Z,2.60
2018-10-19T00:10:09.896Z,2.40
2018-10-19T00:12:36.352Z,2.57
2018-10-19T00:15:02.800Z,2.67
2018-10-19T00:17:29.265Z,2.50
2018-10-19T00:19:55.718Z,2.77
2018-10-19T00:22:22.097Z,2.50
2018-10-19T00:24:48.486Z,2.60
2018-10-19T00:27:15.009Z,2.50
2018-10-19T00:29:41.407Z,2.20
2018-10-19T00:32:07.832Z,2.80
2018-10-19T00:34:34.285Z,2.63
2018-10-19T00:37:00.729Z,2.80
2018-10-19T00:39:27.175Z,2.40
2018-10-19T00:41:53.697Z,2.50
2018-10-19T00:44:20.117Z,2.40
2018-10-19T00:46:46.498Z,2.70
2018-10-19T00:49:12.931Z,2.30
2018-10-19T00:51:39.363Z,2.67
2018-10-19T00:54:05.721Z,2.63
2018-10-19T00:56:32.180Z,2.50
2018-10-19T00:58:58.662Z,2.50
2018-10-19T01:01:25.057Z,2.40
2018-10-19T01:03:51.599Z,2.30
2018-10-19T01:06:17.977Z,2.33
2018-10-19T01:08:44.421Z,2.70
2018-10-19T01:11:10.872Z,2.30
2018-10-19T01:13:37.261Z,2.20
2018-10-19T01:16:03.703Z,2.30
2018-10-19T01:18:30.090Z,2.30
2018-10-19T01:20:56.563Z,2.30
2018-10-19T01:23:22.972Z,2.23
2018-10-19T01:25:49.429Z,2.50
2018-10-19T01:28:15.812Z,2.33
2018-10-19T01:30:42.260Z,2.27
2018-10-19T01:33:08.760Z,1.90
2018-10-19T01:35:35.115Z,2.10
2018-10-19T01:38:01.753Z,2.00
2018-10-19T01:40:28.190Z,1.97
2018-10-19T01:42:54.662Z,1.97
2018-10-19T01:45:21.053Z,1.90
2018-10-19T01:47:47.498Z,1.93
2018-10-19T01:50:13.903Z,2.10
2018-10-19T01:52:40.330Z,2.20
2018-10-19T01:55:06.722Z,2.10
2018-10-19T01:57:33.142Z,1.63
2018-10-19T01:59:59.544Z,2.10
2018-10-19T02:02:25.991Z,2.10
2018-10-19T02:04:52.416Z,1.87
2018-10-19T02:07:18.949Z,1.83
2018-10-19T02:09:45.489Z,2.00
2018-10-19T02:12:11.912Z,2.23
2018-10-19T02:14:38.345Z,1.87
2018-10-19T02:17:04.833Z,1.97
2018-10-19T02:19:31.243Z,2.10
2018-10-19T02:21:57.682Z,2.00
2018-10-19T02:24:24.099Z,2.00
2018-10-19T02:26:50.541Z,1.63
2018-10-19T02:29:16.941Z,2.03
2018-10-19T02:31:43.373Z,1.90
2018-10-19T02:34:09.762Z,2.00
2018-10-19T02:36:36.167Z,1.90
2018-10-19T02:39:02.667Z,2.00
2018-10-19T02:41:29.011Z,2.00
2018-10-19T02:43:55.440Z,2.17
2018-10-19T02:46:21.869Z,2.50
2018-10-19T02:48:48.300Z,1.83
2018-10-19T02:51:14.754Z,2.10
2018-10-19T02:53:41.161Z,1.97
2018-10-19T02:56:07.738Z,1.90
2018-10-19T02:58:34.168Z,2.10
2018-10-19T03:01:00.575Z,2.07
2018-10-19T03:03:26.974Z,2.33
2018-10-19T03:05:53.434Z,2.30
2018-10-19T03:08:19.833Z,1.73
2018-10-19T03:10:46.285Z,2.40
2018-10-19T03:13:12.687Z,2.17
2018-10-19T03:15:39.098Z,2.40
2018-10-19T03:18:05.497Z,2.20
2018-10-19T03:20:31.925Z,1.90
2018-10-19T03:22:58.323Z,2.10
2018-10-19T03:25:24.738Z,2.17
2018-10-19T03:27:51.162Z,2.30
2018-10-19T03:30:17.590Z,2.33
2018-10-19T03:32:43.981Z,2.50
2018-10-19T03:35:10.419Z,2.20
2018-10-19T03:37:36.877Z,2.23
2018-10-19T03:40:03.291Z,2.00
2018-10-19T03:42:29.788Z,2.50
2018-10-19T03:44:56.245Z,2.20
2018-10-19T03:47:22.821Z,2.20
2018-10-19T03:49:49.289Z,2.70
2018-10-19T03:52:15.757Z,2.67
2018-10-19T03:54:42.195Z,2.13
2018-10-19T03:57:08.671Z,2.40
2018-10-19T03:59:35.102Z,2.47
2018-10-19T04:02:01.582Z,2.53
2018-10-19T04:04:28.362Z,2.70
2018-10-19T04:06:54.761Z,2.67
2018-10-19T04:09:21.402Z,2.53
2018-10-19T04:11:47.828Z,2.50
2018-10-19T04:14:14.265Z,2.40
2018-10-19T04:16:40.694Z,2.30
2018-10-19T04:19:07.061Z,2.60
2018-10-19T04:21:33.434Z,2.93
2018-10-19T04:23:59.828Z,3.20
2018-10-19T04:26:26.305Z,3.27
2018-10-19T04:28:52.681Z,2.93
2018-10-19T04:31:19.118Z,3.43
2018-10-19T04:33:45.543Z,3.50
2018-10-19T04:36:11.971Z,2.67
2018-10-19T04:38:38.376Z,2.60
2018-10-19T04:41:04.795Z,3.03
2018-10-19T04:43:31.275Z,2.90
2018-10-19T04:45:57.741Z,3.17
2018-10-19T04:48:24.162Z,3.10
2018-10-19T04:50:50.588Z,2.90
2018-10-19T04:53:17.163Z,3.03
2018-10-19T04:55:43.654Z,3.03
2018-10-19T04:58:10.282Z,2.53
2018-10-19T05:00:36.682Z,2.77
2018-10-19T05:03:03.136Z,2.60
2018-10-19T05:05:29.594Z,3.20
2018-10-19T05:07:56.066Z,3.13
2018-10-19T05:10:22.526Z,2.50
2018-10-19T05:12:49.006Z,2.70
2018-10-19T05:15:15.443Z,2.47
2018-10-19T05:17:41.890Z,2.70
2018-10-19T05:20:08.392Z,2.53
2018-10-19T05:22:34.780Z,2.70
2018-10-19T05:25:01.258Z,2.83
2018-10-19T05:27:27.645Z,2.40
2018-10-19T05:29:54.203Z,2.60
2018-10-19T05:32:20.629Z,2.23
2018-10-19T05:34:47.676Z,2.47
2018-10-19T05:37:14.107Z,2.93
2018-10-19T05:39:40.660Z,2.47
2018-10-19T05:42:07.428Z,2.50
2018-10-19T05:44:34.018Z,2.73
2018-10-19T05:47:00.586Z,2.67
2018-10-19T05:49:28.030Z,2.77
2018-10-19T05:51:54.708Z,2.67
2018-10-19T05:54:21.303Z,3.10
2018-10-19T05:56:47.698Z,2.53
2018-10-19T05:59:14.148Z,2.60
2018-10-19T06:01:40.640Z,2.50
2018-10-19T06:04:07.067Z,2.53
2018-10-19T06:06:33.565Z,2.30
2018-10-19T06:09:00.000Z,3.03
2018-10-19T06:11:28.603Z,2.60
2018-10-19T06:13:55.120Z,2.70
2018-10-19T06:16:21.560Z,2.40
2018-10-19T06:18:47.954Z,2.60
2018-10-19T06:21:14.436Z,2.90
2018-10-19T06:23:40.860Z,3.20
2018-10-19T06:26:07.334Z,2.97
2018-10-19T06:28:33.784Z,3.80
2018-10-19T06:31:00.250Z,3.90
2018-10-19T06:33:26.889Z,3.40
2018-10-19T06:35:53.334Z,3.40
2018-10-19T06:38:19.726Z,2.80
2018-10-19T06:40:46.256Z,3.03
2018-10-19T06:43:12.656Z,2.60
2018-10-19T06:45:39.264Z,2.87
2018-10-19T06:48:05.760Z,3.00
2018-10-19T06:50:32.309Z,3.00
2018-10-19T06:52:58.742Z,2.50
2018-10-19T06:55:25.189Z,2.70
2018-10-19T06:57:51.703Z,2.57
2018-10-19T07:00:18.260Z,2.73
2018-10-19T07:02:44.686Z,2.50
2018-10-19T07:05:11.131Z,2.60
2018-10-19T07:07:37.562Z,2.50
2018-10-19T07:10:03.989Z,2.70
2018-10-19T07:12:30.444Z,2.90
2018-10-19T07:14:56.914Z,2.40
2018-10-19T07:17:23.332Z,2.80
2018-10-19T07:19:49.755Z,3.17
